UDYZ/EVN METAR and TAF weather

Enter ICAO airport designator
Station Type Date Time Source
UDYZ METAR 2020/09/20 01:00 UTC NOAA

UDYZ 200100Z 00000KT 9999 NSC 15/05 Q1016 R09/010070 NOSIG


Station Type Date Time Source
UDYZ Decoded METAR 2020/09/20 01:00 UTC NOAA

Station name not available
Sep 19, 2020 - 09:00 PM EDT / 2020.09.20 0100 UTC
Wind: Calm:0
Visibility: greater than 7 mile(s):0
Temperature: 59 F (15 C)
Dew Point: 41 F (5 C)
Relative Humidity: 51%
Pressure (altimeter): 30.00 in. Hg (1016 hPa)
ob: UDYZ 200100Z 00000KT 9999 NSC 15/05 Q1016 R09/010070 NOSIG
cycle: 1

Station Type Date Time Source
UDYZ TAF 2020/09/19 18:00 UTC NOAA

TAF UDYZ 191700Z 1918/2018 12006KT CAVOK
TEMPO 1918/1922 04016KT

Example: see airport list